Time;durP1;ratioP1;P1;durP2;ratioP2;P2;SDS_P1;SDS_P2;PMS_P1;PMS_P2;Temp;Humidity;BMP_temperature;BMP_pressure;BME280_temperature;BME280_humidity;BME280_pressure;Samples;Min_cycle;Max_cycle;Signal;HPM_P1;HPM_P2
2022/06/05 00:01:01;;;;;;;40.50;32.83;;;16.70;99.90;;;;;;5091754;28;20044;-53
2022/06/05 00:03:42;;;;;;;41.88;33.25;;;16.80;99.90;;;;;;5091463;28;20074;-53
2022/06/05 00:06:14;;;;;;;41.75;32.80;;;16.80;99.90;;;;;;5091962;28;20031;-53
2022/06/05 00:08:58;;;;;;;39.47;31.77;;;16.90;99.90;;;;;;5092037;28;20103;-54
2022/06/05 00:11:24;;;;;;;38.08;31.35;;;16.90;99.90;;;;;;5073096;28;20107;-52
2022/06/05 00:13:52;;;;;;;39.97;32.13;;;16.90;99.90;;;;;;5071664;28;20115;-53
2022/06/05 00:16:29;;;;;;;41.45;33.45;;;16.90;99.90;;;;;;5071404;28;20023;-53
2022/06/05 00:18:55;;;;;;;43.00;32.30;;;16.90;99.90;;;;;;5071292;28;20082;-53
2022/06/05 00:21:21;;;;;;;41.80;33.53;;;16.90;99.90;;;;;;5071066;28;20035;-53
2022/06/05 00:23:47;;;;;;;44.08;33.58;;;16.90;99.90;;;;;;5071116;28;20024;-52
2022/06/05 00:26:25;;;;;;;44.03;32.47;;;16.90;99.90;;;;;;5070886;28;20043;-53
2022/06/05 00:28:58;;;;;;;41.13;32.03;;;16.80;99.90;;;;;;5071003;28;20111;-53
2022/06/05 00:31:47;;;;;;;41.10;33.58;;;16.80;99.90;;;;;;5071110;28;20155;-53
2022/06/05 00:34:13;;;;;;;;;;;16.80;99.90;;;;;;5071561;28;20067;-52
2022/06/05 00:36:48;;;;;;;44.15;33.58;;;16.70;99.90;;;;;;5070065;28;20023;-53
2022/06/05 00:39:55;;;;;;;45.35;34.97;;;16.80;99.90;;;;;;5070683;28;20151;-53
2022/06/05 00:42:25;;;;;;;44.55;35.05;;;16.80;99.90;;;;;;5048245;28;20081;-53
2022/06/05 00:44:55;;;;;;;45.92;35.50;;;16.70;99.90;;;;;;5066804;28;20302;-54
2022/06/05 00:47:24;;;;;;;40.22;33.03;;;16.70;99.90;;;;;;5070999;28;20025;-53
2022/06/05 00:50:01;;;;;;;40.90;34.15;;;16.70;99.90;;;;;;5070814;28;20036;-54
2022/06/05 00:52:31;;;;;;;47.75;35.88;;;16.60;99.90;;;;;;5070838;28;20021;-53
2022/06/05 00:54:57;;;;;;;44.33;35.78;;;16.60;99.90;;;;;;5070296;28;20024;-53
2022/06/05 00:57:28;;;;;;;42.20;34.95;;;16.60;99.90;;;;;;5069072;28;20039;-53
2022/06/05 00:59:54;;;;;;;43.47;34.15;;;16.70;99.90;;;;;;5087977;28;20399;-53
2022/06/05 01:02:20;;;;;;;39.55;32.17;;;16.70;99.90;;;;;;5090921;28;20053;-53
2022/06/05 01:04:52;;;;;;;39.05;32.17;;;16.70;99.90;;;;;;5090683;28;20043;-53
2022/06/05 01:07:22;;;;;;;37.60;31.50;;;16.70;99.90;;;;;;5090668;28;20024;-53
2022/06/05 01:09:50;;;;;;;36.95;31.27;;;16.70;99.90;;;;;;5087633;28;20059;-53
2022/06/05 01:12:39;;;;;;;38.20;32.30;;;16.70;99.90;;;;;;5070198;28;20028;-53
2022/06/05 01:15:24;;;;;;;44.03;32.03;;;16.50;99.90;;;;;;5070346;28;20036;-54
2022/06/05 01:18:01;;;;;;;46.35;36.83;;;16.40;99.90;;;;;;5070191;28;20020;-53
2022/06/05 01:20:48;;;;;;;42.42;35.85;;;16.30;99.90;;;;;;5070185;28;20021;-53
2022/06/05 01:23:41;;;;;;;46.95;35.05;;;16.30;99.90;;;;;;5069690;28;20024;-53
2022/06/05 01:26:37;;;;;;;50.50;38.72;;;16.30;99.90;;;;;;5069620;28;20052;-53
2022/06/05 01:29:09;;;;;;;41.28;34.05;;;16.30;99.90;;;;;;5069310;28;20024;-53
2022/06/05 01:31:54;;;;;;;36.72;31.10;;;16.30;99.90;;;;;;5068599;28;20024;-52
2022/06/05 01:34:23;;;;;;;35.72;29.10;;;16.30;99.90;;;;;;5069497;28;20195;-52
2022/06/05 01:37:14;;;;;;;42.33;33.95;;;16.40;99.90;;;;;;5069462;28;20372;-53
2022/06/05 01:39:43;;;;;;;37.00;30.95;;;16.40;99.90;;;;;;5069521;28;20130;-52
2022/06/05 01:42:14;;;;;;;38.88;32.63;;;16.40;99.90;;;;;;5069090;28;20032;-53
2022/06/05 01:44:45;;;;;;;36.42;31.05;;;16.30;99.90;;;;;;5069246;28;20029;-53
2022/06/05 01:47:24;;;;;;;39.10;32.20;;;16.30;99.90;;;;;;5068990;28;20609;-52
2022/06/05 01:49:57;;;;;;;44.92;34.38;;;16.20;99.90;;;;;;5068999;28;20075;-53
2022/06/05 01:52:48;;;;;;;41.50;31.20;;;16.10;99.90;;;;;;5068939;28;20020;-53
2022/06/05 01:55:23;;;;;;;43.15;33.78;;;16.10;99.90;;;;;;5068955;28;20029;-52
2022/06/05 01:57:52;;;;;;;42.50;35.22;;;16.00;99.90;;;;;;5068872;28;20036;-53
2022/06/05 02:00:22;;;;;;;42.35;34.47;;;16.00;99.90;;;;;;5069200;28;20033;-53
2022/06/05 02:02:58;;;;;;;38.50;33.92;;;15.90;99.90;;;;;;5068964;28;20395;-53
2022/06/05 02:05:28;;;;;;;37.70;32.40;;;16.00;99.90;;;;;;5068914;28;20048;-53
2022/06/05 02:08:03;;;;;;;36.25;29.17;;;15.90;99.90;;;;;;5067709;28;20138;-53
2022/06/05 02:10:38;;;;;;;64.45;34.85;;;15.80;99.90;;;;;;5077072;28;20049;-53
2022/06/05 02:13:04;;;;;;;41.60;33.33;;;15.60;99.90;;;;;;5089360;28;20023;-53
2022/06/05 02:15:31;;;;;;;60.58;29.90;;;15.70;99.90;;;;;;5089130;28;20497;-53
2022/06/05 02:17:58;;;;;;;55.90;31.80;;;15.60;99.90;;;;;;5089309;28;20044;-53
2022/06/05 02:20:24;;;;;;;42.20;30.08;;;15.60;99.90;;;;;;5087773;28;20110;-53
2022/06/05 02:22:51;;;;;;;36.03;29.65;;;15.50;99.90;;;;;;5088871;28;20127;-53
2022/06/05 02:25:19;;;;;;;39.33;31.90;;;15.50;99.90;;;;;;5089428;28;20058;-53
2022/06/05 02:27:45;;;;;;;51.90;32.65;;;15.40;99.90;;;;;;5088828;28;20028;-53
2022/06/05 02:30:14;;;;;;;38.70;31.88;;;15.30;99.90;;;;;;5088991;28;20036;-53
2022/06/05 02:33:14;;;;;;;40.10;32.05;;;15.30;99.90;;;;;;5089152;28;20030;-53
2022/06/05 02:35:49;;;;;;;40.13;33.80;;;15.30;99.90;;;;;;5087612;28;20135;-53
2022/06/05 02:38:47;;;;;;;49.42;34.97;;;15.30;99.90;;;;;;5089036;28;20208;-54
2022/06/05 02:41:34;;;;;;;40.78;33.08;;;15.20;99.90;;;;;;5083861;28;20040;-54
2022/06/05 02:44:29;;;;;;;37.80;30.75;;;15.30;99.90;;;;;;5091241;28;20503;-54
2022/06/05 02:47:35;;;;;;;36.90;30.50;;;15.30;99.90;;;;;;5092520;28;20032;-54
2022/06/05 02:50:25;;;;;;;34.90;29.60;;;15.20;99.90;;;;;;5092340;28;20086;-54
2022/06/05 02:52:52;;;;;;;34.78;30.63;;;15.20;99.90;;;;;;5092659;28;20484;-54
2022/06/05 02:55:20;;;;;;;37.85;32.83;;;15.20;99.90;;;;;;5092999;28;20028;-54
2022/06/05 02:57:46;;;;;;;37.33;31.02;;;15.20;99.90;;;;;;5092483;28;20028;-54
2022/06/05 03:00:18;;;;;;;34.55;29.35;;;15.20;99.90;;;;;;5092591;28;20032;-54
2022/06/05 03:05:29;;;;;;;31.70;27.75;;;15.00;99.90;;;;;;5092684;28;20448;-54
2022/06/05 03:07:55;;;;;;;35.03;28.52;;;15.00;99.90;;;;;;5092256;28;20515;-54
2022/06/05 03:10:21;;;;;;;38.58;31.02;;;15.00;99.90;;;;;;5092455;28;20032;-54
2022/06/05 03:12:47;;;;;;;40.88;32.20;;;15.00;99.90;;;;;;5092065;28;20392;-54
2022/06/05 03:15:15;;;;;;;37.80;31.95;;;15.00;99.90;;;;;;5092173;28;20028;-53
2022/06/05 03:17:42;;;;;;;36.47;30.90;;;15.00;99.90;;;;;;5092520;28;20031;-53
2022/06/05 03:20:09;;;;;;;40.08;32.20;;;15.00;99.90;;;;;;5090738;28;20028;-54
2022/06/05 03:22:35;;;;;;;36.25;30.30;;;14.90;99.90;;;;;;5092102;28;20035;-54
2022/06/05 03:25:01;;;;;;;36.80;31.05;;;14.90;99.90;;;;;;5092204;28;20118;-54
2022/06/05 03:27:27;;;;;;;37.58;31.83;;;15.00;99.90;;;;;;5091873;28;20036;-54
2022/06/05 03:29:53;;;;;;;40.70;33.53;;;15.00;99.90;;;;;;5091937;28;20085;-54
2022/06/05 03:32:19;;;;;;;39.78;33.00;;;15.00;99.90;;;;;;5091842;28;20027;-54
2022/06/05 03:34:44;;;;;;;40.85;32.35;;;15.00;99.90;;;;;;5092219;28;20380;-54
2022/06/05 03:37:11;;;;;;;36.25;31.58;;;15.00;99.90;;;;;;5091773;28;20433;-54
2022/06/05 03:39:37;;;;;;;37.22;31.95;;;15.00;99.90;;;;;;5092117;28;20536;-54
2022/06/05 03:42:03;;;;;;;39.85;32.83;;;15.00;99.90;;;;;;5090242;28;20134;-54
2022/06/05 03:44:28;;;;;;;40.63;35.00;;;15.00;99.90;;;;;;5091031;28;20099;-54
2022/06/05 03:46:54;;;;;;;41.25;32.28;;;15.00;99.90;;;;;;5090420;28;20024;-54
2022/06/05 03:49:20;;;;;;;36.58;32.20;;;14.90;99.90;;;;;;5091547;28;20032;-54
2022/06/05 03:51:46;;;;;;;40.65;32.85;;;15.00;99.90;;;;;;5091882;28;20032;-54
2022/06/05 03:54:12;;;;;;;38.05;32.72;;;15.00;99.90;;;;;;5091274;28;20020;-54
2022/06/05 03:56:39;;;;;;;39.65;33.20;;;15.00;99.90;;;;;;5091397;28;20102;-54
2022/06/05 03:59:05;;;;;;;38.47;31.98;;;15.10;99.90;;;;;;5091726;28;20076;-54
2022/06/05 04:01:31;;;;;;;36.95;31.08;;;15.10;99.90;;;;;;5091509;28;20044;-54
2022/06/05 04:03:57;;;;;;;36.67;31.27;;;15.10;99.90;;;;;;5091385;28;20024;-54
2022/06/05 04:06:29;;;;;;;34.10;30.00;;;15.10;99.90;;;;;;5091083;28;20032;-54
2022/06/05 04:09:04;;;;;;;40.03;31.08;;;15.10;99.90;;;;;;5091124;28;20024;-53
2022/06/05 04:11:32;;;;;;;39.22;31.55;;;15.20;99.90;;;;;;5091110;28;20047;-53
2022/06/05 04:13:58;;;;;;;32.78;28.77;;;15.10;99.90;;;;;;5090933;28;20141;-53
2022/06/05 04:16:26;;;;;;;32.78;27.58;;;15.10;99.90;;;;;;5089425;28;20379;-53
2022/06/05 04:18:53;;;;;;;33.28;27.77;;;15.20;99.90;;;;;;5091267;28;20031;-53
2022/06/05 04:21:22;;;;;;;36.97;25.87;;;15.20;99.90;;;;;;5090829;28;20043;-53
2022/06/05 04:23:48;;;;;;;29.30;26.17;;;15.20;99.90;;;;;;5090772;28;20040;-53
2022/06/05 04:26:17;;;;;;;29.23;25.67;;;15.30;99.90;;;;;;5090957;28;20097;-54
2022/06/05 04:28:43;;;;;;;38.40;27.75;;;15.30;99.90;;;;;;5090709;28;20089;-54
2022/06/05 04:31:30;;;;;;;33.13;27.77;;;15.30;99.90;;;;;;5090733;28;20036;-53
2022/06/05 04:33:58;;;;;;;29.52;25.50;;;15.40;99.90;;;;;;5090512;28;20157;-53
2022/06/05 04:36:24;;;;;;;29.05;25.13;;;15.40;99.90;;;;;;5090417;28;20484;-54
2022/06/05 04:38:50;;;;;;;32.88;26.05;;;15.50;99.90;;;;;;5090379;28;20063;-54
2022/06/05 04:41:18;;;;;;;31.02;25.80;;;15.50;99.90;;;;;;5090497;28;20469;-53
2022/06/05 04:43:44;;;;;;;30.67;26.45;;;15.50;99.90;;;;;;5090602;28;20028;-54
2022/06/05 04:46:10;;;;;;;30.20;25.42;;;15.60;99.90;;;;;;5090431;28;20058;-54
2022/06/05 04:48:36;;;;;;;28.65;25.17;;;15.60;99.90;;;;;;5090149;28;20053;-54
2022/06/05 04:51:07;;;;;;;27.33;23.80;;;15.60;99.90;;;;;;5090279;28;20043;-54
2022/06/05 04:53:33;;;;;;;26.48;22.85;;;15.60;99.90;;;;;;5090304;28;20120;-54
2022/06/05 04:56:03;;;;;;;28.77;22.35;;;15.70;99.90;;;;;;5090383;28;20077;-53
2022/06/05 04:58:29;;;;;;;30.42;23.27;;;15.70;99.90;;;;;;5090063;28;20024;-53
2022/06/05 05:00:55;;;;;;;29.40;22.85;;;15.70;99.90;;;;;;5090011;28;20042;-54
2022/06/05 05:03:20;;;;;;;31.25;24.35;;;15.70;99.90;;;;;;5090417;28;20369;-53
2022/06/05 05:05:46;;;;;;;33.55;27.80;;;15.80;99.90;;;;;;5089936;28;20533;-54
2022/06/05 05:08:12;;;;;;;33.72;28.20;;;15.80;99.90;;;;;;5089405;28;20050;-53
2022/06/05 05:10:37;;;;;;;33.95;29.75;;;15.90;99.90;;;;;;5090033;28;20483;-54
2022/06/05 05:13:03;;;;;;;39.97;32.60;;;15.90;99.90;;;;;;5089872;28;20031;-54
2022/06/05 05:15:29;;;;;;;44.47;32.30;;;15.90;99.90;;;;;;5089597;28;20024;-54
2022/06/05 05:17:54;;;;;;;39.00;33.67;;;16.00;99.90;;;;;;5089597;28;20034;-54
2022/06/05 05:20:20;;;;;;;39.15;34.38;;;16.00;99.90;;;;;;5089921;28;20111;-54
2022/06/05 05:22:46;;;;;;;39.72;32.72;;;16.10;99.90;;;;;;5089409;28;20042;-53
2022/06/05 05:25:12;;;;;;;39.28;31.48;;;16.10;99.90;;;;;;5089745;28;20035;-54
2022/06/05 05:27:39;;;;;;;39.38;31.65;;;16.20;99.90;;;;;;5089814;28;20020;-54
2022/06/05 05:30:06;;;;;;;40.85;31.75;;;16.20;99.90;;;;;;5089221;28;20063;-54
2022/06/05 05:32:32;;;;;;;34.10;28.17;;;16.20;99.90;;;;;;5089465;28;20085;-54
2022/06/05 05:34:58;;;;;;;28.73;24.20;;;16.30;99.90;;;;;;5089802;28;20035;-53
2022/06/05 05:37:24;;;;;;;31.02;24.38;;;16.30;99.90;;;;;;5089178;28;20028;-54
2022/06/05 05:42:34;;;;;;;26.40;21.55;;;16.40;99.90;;;;;;5089429;28;20130;-53
2022/06/05 05:45:00;;;;;;;25.70;22.67;;;16.50;99.90;;;;;;5089634;28;20028;-53
2022/06/05 05:47:30;;;;;;;26.63;23.52;;;16.60;99.90;;;;;;5089319;28;20024;-53
2022/06/05 05:50:06;;;;;;;28.17;21.63;;;16.70;99.90;;;;;;5089454;28;20039;-53
2022/06/05 05:52:32;;;;;;;27.30;22.17;;;16.80;99.90;;;;;;5089374;28;20020;-54
2022/06/05 05:54:58;;;;;;;25.02;20.38;;;16.80;99.90;;;;;;5089137;28;20078;-54
2022/06/05 05:57:24;;;;;;;22.33;18.92;;;16.90;99.90;;;;;;5089317;28;20062;-54
2022/06/05 05:59:50;;;;;;;23.88;17.55;;;17.00;99.90;;;;;;5089187;28;20036;-54
2022/06/05 06:02:21;;;;;;;22.00;17.95;;;17.00;99.90;;;;;;5089304;28;20499;-53
2022/06/05 06:04:49;;;;;;;19.42;16.38;;;17.10;99.90;;;;;;5089450;28;20029;-54
2022/06/05 06:07:16;;;;;;;23.90;16.63;;;17.20;99.90;;;;;;5089043;28;20039;-54
2022/06/05 06:09:42;;;;;;;22.15;16.35;;;17.30;99.90;;;;;;5089070;28;20024;-54
2022/06/05 06:12:09;;;;;;;19.15;15.88;;;17.40;99.90;;;;;;5068785;28;20449;-54
2022/06/05 06:14:36;;;;;;;18.20;16.20;;;17.40;99.90;;;;;;5069062;28;20020;-54
2022/06/05 06:17:02;;;;;;;18.33;14.35;;;17.50;99.90;;;;;;5068843;28;20526;-54
2022/06/05 06:19:28;;;;;;;16.52;13.77;;;17.60;99.90;;;;;;5072074;28;20038;-54
2022/06/05 06:21:53;;;;;;;20.98;14.18;;;17.70;99.90;;;;;;5072693;28;20109;-54
2022/06/05 06:24:19;;;;;;;18.40;14.23;;;17.70;99.90;;;;;;5071374;28;20385;-54
2022/06/05 06:26:45;;;;;;;17.27;14.23;;;17.70;99.90;;;;;;5072858;28;20384;-54
2022/06/05 06:29:11;;;;;;;19.25;15.18;;;17.80;99.90;;;;;;5072601;28;20032;-54
2022/06/05 06:31:38;;;;;;;17.98;13.93;;;17.90;99.90;;;;;;5072736;28;20036;-53
2022/06/05 06:34:05;;;;;;;20.75;13.60;;;18.10;99.90;;;;;;5072486;28;20180;-53
2022/06/05 06:36:32;;;;;;;17.42;14.20;;;18.10;99.90;;;;;;5072570;28;20032;-54
2022/06/05 06:38:59;;;;;;;17.20;13.45;;;18.30;99.90;;;;;;5072317;28;20056;-54
2022/06/05 06:41:25;;;;;;;15.68;12.43;;;18.40;99.90;;;;;;5072315;28;20388;-54
2022/06/05 06:43:51;;;;;;;17.77;12.35;;;18.50;99.90;;;;;;5072472;28;20024;-54
2022/06/05 06:46:18;;;;;;;13.10;11.13;;;18.60;99.90;;;;;;5072149;28;20032;-54
2022/06/05 06:48:45;;;;;;;14.60;11.77;;;18.70;99.90;;;;;;5072350;28;20052;-54
2022/06/05 06:51:11;;;;;;;23.77;11.53;;;18.80;99.90;;;;;;5072294;28;20048;-54
2022/06/05 06:53:39;;;;;;;14.52;12.27;;;18.80;99.90;;;;;;5072189;28;20025;-55
2022/06/05 06:56:16;;;;;;;17.42;12.85;;;18.90;99.90;;;;;;5072213;28;20029;-54
2022/06/05 06:58:43;;;;;;;14.00;11.98;;;19.00;99.90;;;;;;5072609;28;20028;-54
2022/06/05 07:01:09;;;;;;;16.55;12.20;;;19.10;99.90;;;;;;5072715;28;20028;-53
2022/06/05 07:03:36;;;;;;;17.05;12.35;;;19.10;99.90;;;;;;5072637;28;20024;-54
2022/06/05 07:06:03;;;;;;;14.33;11.53;;;19.10;99.90;;;;;;5072963;28;20071;-54
2022/06/05 07:08:29;;;;;;;19.83;11.95;;;19.30;99.90;;;;;;5072915;28;20047;-54
2022/06/05 07:10:55;;;;;;;14.02;11.32;;;19.40;99.90;;;;;;5082315;28;20486;-54
2022/06/05 07:13:21;;;;;;;13.20;10.88;;;19.40;99.90;;;;;;5092792;28;20073;-54
2022/06/05 07:15:47;;;;;;;15.97;12.17;;;19.50;99.90;;;;;;5092708;28;20032;-54
2022/06/05 07:18:13;;;;;;;18.52;12.10;;;19.60;99.90;;;;;;5092660;28;20077;-53
2022/06/05 07:20:41;;;;;;;13.45;11.23;;;19.70;99.90;;;;;;5092908;28;20153;-54
2022/06/05 07:23:08;;;;;;;15.48;12.00;;;19.60;99.90;;;;;;5102629;28;20053;-54
2022/06/05 07:25:34;;;;;;;16.30;11.13;;;19.70;99.90;;;;;;5101162;28;20070;-54
2022/06/05 07:28:00;;;;;;;12.35;10.90;;;19.70;99.90;;;;;;5103167;28;20031;-54
2022/06/05 07:30:26;;;;;;;16.88;11.45;;;19.90;99.90;;;;;;5101079;28;20816;-54
2022/06/05 07:32:52;;;;;;;17.70;11.38;;;20.10;99.90;;;;;;5083084;28;20061;-54
2022/06/05 07:35:19;;;;;;;16.70;10.98;;;20.00;99.90;;;;;;5081514;28;20113;-53
2022/06/05 07:37:45;;;;;;;13.95;11.20;;;20.20;99.90;;;;;;5091808;28;20044;-54
2022/06/05 07:40:12;;;;;;;15.80;10.83;;;20.40;99.90;;;;;;5102021;28;20036;-54
2022/06/05 07:42:39;;;;;;;13.98;10.75;;;20.40;99.90;;;;;;5084418;28;20690;-53
2022/06/05 07:45:06;;;;;;;16.10;11.10;;;20.50;99.90;;;;;;5082172;28;20040;-54
2022/06/05 07:47:33;;;;;;;15.82;10.52;;;20.60;99.90;;;;;;5081019;28;20020;-54
2022/06/05 07:49:58;;;;;;;14.10;10.50;;;20.80;99.90;;;;;;5080197;28;20036;-54
2022/06/05 07:55:11;;;;;;;14.80;10.50;;;21.00;99.90;;;;;;5080649;28;20139;-54
2022/06/05 07:57:37;;;;;;;;;;;21.00;99.90;;;;;;5080090;28;20096;-54
2022/06/05 08:00:07;;;;;;;14.32;9.73;;;21.00;99.90;;;;;;5081235;28;19911;-53
2022/06/05 08:02:34;;;;;;;13.82;9.52;;;21.10;99.90;;;;;;5080463;28;20059;-54
2022/06/05 08:05:02;;;;;;;14.20;9.60;;;21.00;99.90;;;;;;5077914;28;20444;-55
2022/06/05 08:07:32;;;;;;;13.07;10.30;;;21.20;99.90;;;;;;5080519;28;20032;-57
2022/06/05 08:09:59;;;;;;;20.17;9.57;;;21.20;99.90;;;;;;5079206;28;20165;-57
2022/06/05 08:12:30;;;;;;;15.13;10.05;;;21.20;99.90;;;;;;5080670;28;20027;-57
2022/06/05 08:14:56;;;;;;;16.77;9.85;;;21.40;99.90;;;;;;5081065;28;20032;-55
2022/06/05 08:17:28;;;;;;;13.88;9.50;;;21.60;99.90;;;;;;5079877;28;20028;-55
2022/06/05 08:19:54;;;;;;;14.15;9.73;;;21.50;99.90;;;;;;5079566;28;20108;-54
2022/06/05 08:22:22;;;;;;;13.93;9.82;;;21.40;99.90;;;;;;5079564;28;20028;-54
2022/06/05 08:24:48;;;;;;;14.25;10.02;;;21.60;99.90;;;;;;5100681;28;20053;-55
2022/06/05 08:27:17;;;;;;;13.23;9.50;;;21.70;99.90;;;;;;5099090;28;20027;-54
2022/06/05 08:29:43;;;;;;;14.93;10.18;;;21.80;99.90;;;;;;5100172;28;20067;-55
2022/06/05 08:32:10;;;;;;;12.63;9.77;;;21.80;99.90;;;;;;5101284;28;20024;-54
2022/06/05 08:34:36;;;;;;;13.00;8.82;;;22.00;99.90;;;;;;5099056;28;20562;-56
2022/06/05 08:42:54;;;;;;;17.13;9.63;;;22.10;99.90;;;;;;5100361;28;20042;-53
2022/06/05 08:45:27;;;;;;;17.50;9.45;;;22.30;99.90;;;;;;5095670;28;20472;-55
2022/06/05 08:47:59;;;;;;;11.68;8.32;;;22.40;99.90;;;;;;5090377;28;20035;-55
2022/06/05 08:50:44;;;;;;;12.38;8.57;;;22.70;99.90;;;;;;5090859;28;20040;-56
2022/06/05 08:53:36;;;;;;;14.02;7.60;;;22.70;99.90;;;;;;5090811;28;20024;-55
2022/06/05 08:56:05;;;;;;;11.60;8.63;;;22.70;99.90;;;;;;5090852;28;20051;-55
2022/06/05 08:58:55;;;;;;;11.75;8.13;;;22.90;99.90;;;;;;5090729;28;20077;-55
2022/06/05 09:01:38;;;;;;;15.45;8.98;;;23.10;99.90;;;;;;5090594;28;20066;-55
2022/06/05 09:04:43;;;;;;;11.63;7.97;;;23.00;99.90;;;;;;5089238;28;20043;-55
2022/06/05 09:07:20;;;;;;;9.60;7.38;;;23.40;99.90;;;;;;5088790;28;20074;-54
2022/06/05 09:10:02;;;;;;;14.52;8.10;;;23.30;99.90;;;;;;5095159;28;20123;-56
2022/06/05 09:12:35;;;;;;;11.50;7.78;;;23.20;99.90;;;;;;5098514;28;20066;-55
2022/06/05 09:15:23;;;;;;;10.45;6.43;;;23.10;99.90;;;;;;5099136;28;20376;-54
2022/06/05 09:17:58;;;;;;;7.07;6.22;;;23.40;99.90;;;;;;5100420;28;20015;-52
2022/06/05 09:20:34;;;;;;;16.02;8.63;;;23.50;99.90;;;;;;5100174;28;20739;-53
2022/06/05 09:23:06;;;;;;;10.13;7.78;;;23.60;99.90;;;;;;5098305;28;20031;-55
2022/06/05 09:26:02;;;;;;;12.13;8.88;;;23.90;99.90;;;;;;5096238;28;20094;-56
2022/06/05 09:28:50;;;;;;;12.38;8.02;;;24.10;99.90;;;;;;5100294;28;20036;-57
2022/06/05 09:31:40;;;;;;;11.07;6.65;;;23.70;99.90;;;;;;5098384;28;20032;-55
2022/06/05 09:34:20;;;;;;;11.23;7.82;;;23.40;98.20;;;;;;5099751;28;20015;-53
2022/06/05 09:37:14;;;;;;;11.88;7.88;;;23.20;99.50;;;;;;5098287;28;20024;-52
2022/06/05 09:39:52;;;;;;;12.75;8.68;;;23.10;99.90;;;;;;5087919;28;20047;-53
2022/06/05 09:42:40;;;;;;;11.32;7.78;;;22.90;99.90;;;;;;5095433;28;20061;-53
2022/06/05 09:45:09;;;;;;;;;;;22.90;99.90;;;;;;5087430;28;20070;-54
2022/06/05 09:47:40;;;;;;;;;;;23.00;99.90;;;;;;5098096;28;20339;-54
2022/06/05 09:50:25;;;;;;;8.75;6.20;;;23.20;99.90;;;;;;5100868;28;20358;-54
2022/06/05 09:52:51;;;;;;;11.98;7.55;;;23.40;98.20;;;;;;5097109;28;20038;-54
2022/06/05 09:55:26;;;;;;;12.82;7.15;;;23.30;94.70;;;;;;5099841;28;20023;-56
2022/06/05 09:58:35;;;;;;;9.50;7.70;;;23.20;99.60;;;;;;5100019;28;20524;-55
2022/06/05 10:01:28;;;;;;;7.78;5.22;;;23.20;99.90;;;;;;5096509;28;20039;-55
2022/06/05 10:03:57;;;;;;;5.63;4.60;;;23.40;94.20;;;;;;5099467;28;20043;-54
2022/06/05 10:06:43;;;;;;;7.03;5.35;;;23.60;91.10;;;;;;5098715;28;20024;-58
2022/06/05 10:09:27;;;;;;;10.40;6.85;;;23.60;95.90;;;;;;5098579;28;20028;-53
2022/06/05 10:12:07;;;;;;;11.40;8.25;;;23.80;99.90;;;;;;5099514;28;20027;-54
2022/06/05 10:14:38;;;;;;;11.90;8.07;;;24.10;98.80;;;;;;5099575;28;20020;-53
2022/06/05 10:17:16;;;;;;;12.38;7.65;;;24.30;93.70;;;;;;5098620;28;20025;-54
2022/06/05 10:19:54;;;;;;;;;;;24.20;94.80;;;;;;5096953;28;20031;-53
2022/06/05 10:22:38;;;;;;;9.82;5.88;;;24.10;93.10;;;;;;5095914;28;19930;-55
2022/06/05 10:25:28;;;;;;;10.98;6.80;;;24.10;95.40;;;;;;5097462;28;20016;-54
2022/06/05 10:27:59;;;;;;;6.68;5.63;;;24.00;92.40;;;;;;5099168;28;20106;-55
2022/06/05 10:30:33;;;;;;;8.15;5.32;;;24.50;95.80;;;;;;5097168;28;20420;-55
2022/06/05 10:33:23;;;;;;;6.38;5.18;;;24.80;93.30;;;;;;5094377;28;20107;-54
2022/06/05 10:36:10;;;;;;;29.23;23.67;;;25.10;88.30;;;;;;5089093;28;20043;-54
2022/06/05 10:38:50;;;;;;;7.68;6.57;;;24.90;87.00;;;;;;5090128;28;20470;-55
2022/06/05 10:41:38;;;;;;;7.22;6.10;;;24.50;88.90;;;;;;5096005;28;20035;-55
2022/06/05 10:44:15;;;;;;;8.53;6.63;;;24.80;89.40;;;;;;5089388;28;20169;-54
2022/06/05 10:47:17;;;;;;;7.60;6.43;;;24.40;88.60;;;;;;5089430;28;20064;-54
2022/06/05 10:50:02;;;;;;;10.65;5.90;;;24.30;94.00;;;;;;5096413;28;20032;-54
2022/06/05 10:52:36;;;;;;;12.32;7.28;;;24.70;94.50;;;;;;5097076;28;20034;-55
2022/06/05 10:55:40;;;;;;;9.18;6.38;;;24.70;90.40;;;;;;5094549;28;20103;-53
2022/06/05 10:58:31;;;;;;;9.55;6.75;;;24.60;88.50;;;;;;5104504;28;20019;-54
2022/06/05 11:01:13;;;;;;;8.52;6.05;;;24.70;90.00;;;;;;5109629;28;20042;-54
2022/06/05 11:04:00;;;;;;;7.15;5.65;;;24.80;89.80;;;;;;5109184;28;20031;-54
2022/06/05 11:06:27;;;;;;;7.57;5.07;;;24.80;86.50;;;;;;5111077;28;20036;-54
2022/06/05 11:09:08;;;;;;;;;;;24.80;85.70;;;;;;5093030;28;20498;-54
2022/06/05 11:14:51;;;;;;;8.40;5.55;;;25.40;93.10;;;;;;5092885;28;20391;-54
2022/06/05 11:18:11;;;;;;;7.63;5.63;;;25.80;89.50;;;;;;5092784;28;20107;-54
2022/06/05 11:20:41;;;;;;;8.07;5.68;;;26.10;91.60;;;;;;5075163;28;20024;-55
2022/06/05 11:23:13;;;;;;;7.05;5.75;;;26.40;88.90;;;;;;5079434;28;20033;-55
2022/06/05 11:26:04;;;;;;;5.47;4.70;;;26.60;87.00;;;;;;5081585;28;20025;-54
2022/06/05 11:28:45;;;;;;;7.35;4.93;;;26.30;76.70;;;;;;5094068;28;20107;-54
2022/06/05 11:31:42;;;;;;;6.97;5.00;;;26.70;81.60;;;;;;5096425;28;20028;-54
2022/06/05 11:34:29;;;;;;;8.20;5.53;;;27.10;87.60;;;;;;5081160;28;20020;-54
2022/06/05 11:37:09;;;;;;;7.00;5.70;;;27.10;83.20;;;;;;5096407;28;20106;-55
2022/06/05 11:39:56;;;;;;;6.22;5.43;;;27.30;83.10;;;;;;5101476;28;20032;-55
2022/06/05 11:42:31;;;;;;;7.75;5.28;;;27.50;83.50;;;;;;5081456;28;20403;-54
2022/06/05 11:45:21;;;;;;;6.82;5.40;;;27.70;80.90;;;;;;5081491;28;20388;-55
2022/06/05 11:47:59;;;;;;;8.57;5.50;;;27.60;71.50;;;;;;5080050;28;20058;-54
2022/06/05 11:50:32;;;;;;;6.50;4.90;;;27.50;70.20;;;;;;5090757;28;20035;-55
2022/06/05 11:53:09;;;;;;;6.78;5.00;;;27.70;76.90;;;;;;5096285;28;20033;-54
2022/06/05 11:55:45;;;;;;;6.30;5.47;;;28.00;78.90;;;;;;5095118;28;20651;-55
2022/06/05 11:58:22;;;;;;;70.55;62.80;;;28.10;77.40;;;;;;5112372;27;20028;-54
2022/06/05 12:00:57;;;;;;;7.20;5.05;;;28.30;79.80;;;;;;5112316;28;20483;-54
2022/06/05 12:03:36;;;;;;;6.13;5.30;;;28.60;73.80;;;;;;5098715;28;20047;-55
2022/06/05 12:06:27;;;;;;;7.70;4.80;;;28.40;78.40;;;;;;5098477;28;20044;-55
2022/06/05 12:09:00;;;;;;;4.55;4.05;;;28.60;75.90;;;;;;5101231;28;20024;-54
2022/06/05 12:11:34;;;;;;;10.25;4.85;;;28.70;76.90;;;;;;5101047;28;20081;-54
2022/06/05 12:14:25;;;;;;;7.22;4.55;;;27.90;72.70;;;;;;5097964;28;20357;-54
2022/06/05 12:16:56;;;;;;;6.13;4.40;;;27.60;75.60;;;;;;5100292;28;20020;-54
2022/06/05 12:19:57;;;;;;;6.53;4.43;;;27.30;73.00;;;;;;5098582;28;20034;-54
2022/06/05 12:22:33;;;;;;;7.13;3.97;;;27.70;75.80;;;;;;5091395;28;20035;-54
2022/06/05 12:25:23;;;;;;;4.22;3.75;;;27.80;69.20;;;;;;5090824;28;20127;-53
2022/06/05 12:28:09;;;;;;;6.32;3.40;;;27.90;63.70;;;;;;5071483;28;20020;-54
2022/06/05 12:30:48;;;;;;;5.90;3.65;;;28.30;70.60;;;;;;5070820;28;20045;-54
2022/06/05 12:33:36;;;;;;;4.25;3.75;;;28.30;62.90;;;;;;5069938;28;20078;-53
2022/06/05 12:36:29;;;;;;;8.85;4.15;;;28.70;68.80;;;;;;5077095;28;20031;-54
2022/06/05 12:39:17;;;;;;;4.85;3.63;;;29.20;69.10;;;;;;5086029;28;20101;-54
2022/06/05 12:41:42;;;;;;;5.78;3.83;;;29.10;62.70;;;;;;5089158;28;20024;-54
2022/06/05 12:44:08;;;;;;;5.53;3.85;;;29.30;66.60;;;;;;5089480;28;20034;-54
2022/06/05 12:46:43;;;;;;;4.68;3.47;;;29.40;66.20;;;;;;5089425;28;20107;-53
2022/06/05 12:49:40;;;;;;;6.60;3.55;;;29.10;66.90;;;;;;5090283;28;20032;-53
2022/06/05 12:52:29;;;;;;;4.22;3.83;;;28.20;63.60;;;;;;5090743;28;20036;-53
2022/06/05 12:55:01;;;;;;;4.28;3.88;;;27.70;68.80;;;;;;5090589;28;20074;-54
2022/06/05 12:57:53;;;;;;;4.85;3.85;;;27.40;67.30;;;;;;5091045;28;20027;-53
2022/06/05 13:00:50;;;;;;;5.05;3.50;;;27.10;69.40;;;;;;5090694;28;20024;-53
2022/06/05 13:03:41;;;;;;;4.63;3.38;;;27.00;66.40;;;;;;5090686;28;20028;-54
2022/06/05 13:06:27;;;;;;;6.45;4.00;;;26.90;70.30;;;;;;5090759;28;20024;-54
2022/06/05 13:09:04;;;;;;;5.78;3.92;;;27.40;70.80;;;;;;5090566;28;20505;-54
2022/06/05 13:11:45;;;;;;;4.53;3.25;;;28.10;67.10;;;;;;5089407;28;20036;-55
2022/06/05 13:14:28;;;;;;;5.40;3.58;;;28.10;60.50;;;;;;5090692;28;20046;-55
2022/06/05 13:16:57;;;;;;;3.65;3.10;;;28.40;63.90;;;;;;5090348;28;20529;-54
2022/06/05 13:19:41;;;;;;;4.88;3.55;;;28.00;64.80;;;;;;5090416;28;20346;-54
2022/06/05 13:22:29;;;;;;;5.35;4.07;;;27.80;66.70;;;;;;5090519;28;20131;-54
2022/06/05 13:25:03;;;;;;;9.02;5.63;;;27.50;67.20;;;;;;5090614;28;20115;-54
2022/06/05 13:27:29;;;;;;;5.35;3.92;;;27.30;68.30;;;;;;5089818;28;20078;-54